Time;durP1;ratioP1;P1;durP2;ratioP2;P2;SDS_P1;SDS_P2;PMS_P1;PMS_P2;Temp;Humidity;BMP_temperature;BMP_pressure;BME280_temperature;BME280_humidity;BME280_pressure;Samples;Min_cycle;Max_cycle;Signal;HPM_P1;HPM_P2
2023/02/09 00:02:11;;;;;;;7.13;4.00;;;;;;;18.21;39.20;103106.31;4995490;28;20085;-73
2023/02/09 00:04:37;;;;;;;6.97;4.30;;;;;;;18.19;39.47;103110.81;4994860;28;20029;-75
2023/02/09 00:07:02;;;;;;;8.60;4.50;;;;;;;18.18;39.33;103117.00;4993187;28;20081;-75
2023/02/09 00:09:28;;;;;;;6.90;4.63;;;;;;;18.16;39.42;103111.78;4994711;28;20621;-77
2023/02/09 00:14:37;;;;;;;7.43;4.47;;;;;;;18.11;38.97;103114.63;4993716;28;20641;-75
2023/02/09 00:17:03;;;;;;;8.23;4.55;;;;;;;18.11;39.32;103112.00;4991428;28;20128;-75
2023/02/09 00:19:30;;;;;;;9.98;4.57;;;;;;;18.10;39.12;103120.88;4991516;28;20467;-75
2023/02/09 00:21:57;;;;;;;8.05;4.50;;;;;;;18.09;39.06;103119.13;4999459;28;20066;-73
2023/02/09 00:24:22;;;;;;;6.63;4.32;;;;;;;18.09;39.16;103116.50;5008827;28;20033;-74
2023/02/09 00:26:48;;;;;;;7.82;4.35;;;;;;;18.09;38.93;103118.28;4992625;28;20044;-75
2023/02/09 00:29:13;;;;;;;5.90;4.13;;;;;;;18.01;39.14;103109.84;4993036;28;20034;-73
2023/02/09 00:31:39;;;;;;;7.07;4.35;;;;;;;18.03;38.86;103119.41;4993091;28;20041;-74
2023/02/09 00:34:04;;;;;;;8.98;4.40;;;;;;;18.04;39.03;103113.22;4992768;28;20044;-75
2023/02/09 00:36:30;;;;;;;5.95;3.65;;;;;;;18.03;38.89;103124.69;4992895;28;20033;-74
2023/02/09 00:38:56;;;;;;;8.52;4.40;;;;;;;17.99;38.90;103116.97;4993671;28;20069;-73
2023/02/09 00:42:04;;;;;;;6.65;4.15;;;;;;;17.97;38.99;103119.69;4992727;28;20395;-75
2023/02/09 00:44:07;;;;;;;6.72;4.22;;;;;;;17.99;39.12;103122.25;4993044;28;20061;-74
2023/02/09 00:46:32;;;;;;;6.78;4.43;;;;;;;17.99;38.89;103127.53;4992249;28;20112;-74
2023/02/09 00:48:57;;;;;;;7.57;4.53;;;;;;;17.92;39.00;103122.53;4991705;28;20046;-74
2023/02/09 00:51:23;;;;;;;5.95;3.90;;;;;;;17.96;38.84;103123.28;4993030;28;20042;-75
2023/02/09 00:53:48;;;;;;;7.43;4.45;;;;;;;17.95;38.88;103130.31;4991531;28;20034;-74
2023/02/09 00:56:13;;;;;;;7.45;4.45;;;;;;;17.95;38.78;103132.09;4992053;28;20145;-75
2023/02/09 00:58:39;;;;;;;6.90;4.15;;;;;;;17.93;38.77;103128.69;4990797;28;20041;-74
2023/02/09 01:01:04;;;;;;;7.05;4.20;;;;;;;17.80;38.57;103111.63;4992367;28;20035;-77
2023/02/09 01:03:29;;;;;;;7.22;4.57;;;;;;;17.90;38.80;103126.19;4992546;28;20069;-75
2023/02/09 01:05:57;;;;;;;7.45;4.00;;;;;;;17.90;38.58;103121.75;4993575;28;20422;-76
2023/02/09 01:08:23;;;;;;;8.00;4.15;;;;;;;17.90;38.94;103124.38;4991949;28;20041;-77
2023/02/09 01:10:48;;;;;;;8.02;4.45;;;;;;;17.84;38.49;103111.44;4991879;28;20603;-76
2023/02/09 01:13:13;;;;;;;7.97;4.35;;;;;;;17.84;38.42;103108.78;4992392;28;20422;-77
2023/02/09 01:15:39;;;;;;;6.55;3.80;;;;;;;17.86;38.73;103111.38;4990065;28;20149;-76
2023/02/09 01:18:06;;;;;;;6.05;3.85;;;;;;;17.78;38.71;103098.50;4989819;28;20512;-77
2023/02/09 01:20:32;;;;;;;9.45;4.32;;;;;;;17.83;38.90;103107.09;4990692;28;20490;-78
2023/02/09 01:22:57;;;;;;;6.40;4.10;;;;;;;17.82;38.57;103102.75;4992095;28;20034;-77
2023/02/09 01:25:23;;;;;;;7.38;4.22;;;;;;;17.81;38.92;103113.34;4991287;28;20044;-75
2023/02/09 01:27:48;;;;;;;5.85;3.92;;;;;;;17.80;38.73;103117.78;4990899;28;20045;-77
2023/02/09 01:30:13;;;;;;;8.95;4.55;;;;;;;17.78;38.80;103114.34;4991427;28;20497;-77
2023/02/09 01:32:39;;;;;;;7.13;4.32;;;;;;;17.78;38.74;103119.59;4990830;28;20030;-76
2023/02/09 01:35:05;;;;;;;7.35;4.30;;;;;;;17.78;38.47;103114.34;4990470;28;20390;-74
2023/02/09 01:37:33;;;;;;;6.63;4.30;;;;;;;17.75;38.89;103107.44;4991181;28;20520;-77
2023/02/09 01:39:58;;;;;;;6.97;4.22;;;;;;;17.72;38.48;103110.19;4992309;28;20034;-73
2023/02/09 01:42:23;;;;;;;7.07;4.07;;;;;;;17.75;38.60;103104.78;4990432;28;20093;-73
2023/02/09 01:45:06;;;;;;;7.70;4.00;;;;;;;17.60;38.68;103092.28;4991182;28;20062;-74
2023/02/09 01:47:36;;;;;;;7.90;4.57;;;;;;;17.74;38.36;103118.06;4991465;28;20033;-74
2023/02/09 01:50:02;;;;;;;6.32;3.83;;;;;;;17.72;38.49;103118.13;4998246;28;20286;-74
2023/02/09 01:52:28;;;;;;;6.38;3.97;;;;;;;17.68;38.69;103111.25;4992604;28;20426;-73
2023/02/09 01:54:58;;;;;;;7.70;4.07;;;;;;;17.70;38.71;103111.19;4991814;28;20054;-73
2023/02/09 01:57:29;;;;;;;7.65;4.00;;;;;;;17.68;38.51;103113.88;4990656;28;20061;-73
2023/02/09 02:00:01;;;;;;;6.97;4.00;;;;;;;17.65;38.44;103108.75;4998628;28;20044;-76
2023/02/09 02:02:27;;;;;;;6.68;3.90;;;;;;;17.66;38.26;103099.91;4992810;28;20066;-74
2023/02/09 02:04:52;;;;;;;7.10;4.25;;;;;;;17.65;38.46;103100.84;5007140;28;20070;-75
2023/02/09 02:07:26;;;;;;;6.65;4.30;;;;;;;17.62;38.42;103095.69;4991776;28;20042;-76
2023/02/09 02:09:52;;;;;;;8.43;3.87;;;;;;;17.63;38.45;103096.56;4991532;28;20663;-74
2023/02/09 02:12:18;;;;;;;5.43;3.55;;;;;;;17.62;38.24;103094.84;4990917;28;20045;-74
2023/02/09 02:14:43;;;;;;;6.25;3.90;;;;;;;17.58;38.41;103096.75;4989063;28;20042;-76
2023/02/09 02:17:46;;;;;;;6.43;4.00;;;;;;;17.62;38.52;103106.25;4991306;28;20042;-75
2023/02/09 02:20:20;;;;;;;7.70;4.10;;;;;;;17.61;38.42;103096.63;4992798;28;20074;-77
2023/02/09 02:22:59;;;;;;;8.00;4.00;;;;;;;17.60;38.31;103100.19;4990916;28;20556;-76
2023/02/09 02:25:30;;;;;;;6.30;3.78;;;;;;;17.59;38.47;103101.09;4991657;28;20039;-78
2023/02/09 02:28:17;;;;;;;6.43;4.03;;;;;;;17.51;38.22;103087.41;4991612;28;20038;-75
2023/02/09 02:31:00;;;;;;;6.40;4.07;;;;;;;17.57;38.30;103087.13;4990659;28;20042;-75
2023/02/09 02:33:52;;;;;;;7.30;4.28;;;;;;;17.51;38.19;103069.78;4991633;28;20030;-77
2023/02/09 02:36:34;;;;;;;7.30;3.85;;;;;;;17.56;38.42;103082.78;4991217;28;20513;-77
2023/02/09 02:39:32;;;;;;;6.78;3.80;;;;;;;17.49;38.37;103070.78;4990793;28;20034;-75
2023/02/09 02:45:07;;;;;;;6.80;3.92;;;;;;;17.51;38.44;103074.22;4994692;28;20104;-75
2023/02/09 02:47:37;;;;;;;6.88;4.03;;;;;;;17.48;38.11;103067.31;4995224;28;20511;-74
2023/02/09 02:50:10;;;;;;;7.53;3.90;;;;;;;17.47;38.33;103070.00;4994123;28;20046;-76
2023/02/09 02:52:38;;;;;;;6.95;3.67;;;;;;;17.48;38.10;103066.44;4994539;28;20069;-73
2023/02/09 02:55:15;;;;;;;7.07;4.07;;;;;;;17.45;38.07;103061.28;4995711;28;20068;-75
2023/02/09 02:57:46;;;;;;;8.68;3.88;;;;;;;17.44;38.40;103056.97;4995221;28;20056;-74
2023/02/09 03:00:27;;;;;;;6.45;3.95;;;;;;;17.45;38.16;103056.03;4994985;28;20030;-74
2023/02/09 03:02:55;;;;;;;6.53;3.83;;;;;;;17.43;38.19;103052.59;4994823;28;20033;-77
2023/02/09 03:05:23;;;;;;;7.70;3.95;;;;;;;17.44;38.16;103054.31;5000717;28;20128;-74
2023/02/09 03:07:48;;;;;;;6.13;3.80;;;;;;;17.39;38.21;103050.09;4993442;28;20076;-75
2023/02/09 03:10:23;;;;;;;5.80;3.63;;;;;;;17.45;38.35;103058.66;4993894;28;20042;-74
2023/02/09 03:13:04;;;;;;;7.13;3.95;;;;;;;17.39;38.10;103050.09;4993986;28;20041;-71
2023/02/09 03:16:18;;;;;;;5.72;3.67;;;;;;;17.43;38.59;103063.16;4994006;28;20096;-74
2023/02/09 03:19:05;;;;;;;8.77;3.88;;;;;;;17.44;38.74;103070.16;4966353;28;20054;-76
2023/02/09 03:21:51;;;;;;;7.53;3.88;;;;;;;17.41;38.59;103066.69;4994561;28;20046;-76
2023/02/09 03:24:23;;;;;;;7.47;3.75;;;;;;;17.46;38.66;103068.28;4995009;28;20034;-75
2023/02/09 03:26:53;;;;;;;6.35;3.72;;;;;;;17.43;38.43;103056.09;4995377;28;20076;-76
2023/02/09 03:29:21;;;;;;;7.82;4.30;;;;;;;17.41;38.73;103053.50;4993496;28;20057;-76
2023/02/09 03:31:47;;;;;;;6.95;3.67;;;;;;;17.41;38.70;103050.03;4994154;28;20042;-78
2023/02/09 03:34:13;;;;;;;6.80;3.75;;;;;;;17.40;39.00;103054.47;4994255;28;20034;-74
2023/02/09 03:36:40;;;;;;;7.32;3.78;;;;;;;17.38;38.74;103051.00;4994116;28;20042;-75
2023/02/09 03:39:05;;;;;;;6.13;3.70;;;;;;;17.38;38.96;103048.38;4994161;28;20157;-74
2023/02/09 03:41:30;;;;;;;6.18;3.88;;;;;;;17.37;38.83;103045.81;5000718;28;20486;-74
2023/02/09 03:46:42;;;;;;;8.20;3.50;;;;;;;17.41;39.01;103053.50;4992499;28;20080;-75
2023/02/09 03:49:08;;;;;;;7.15;3.72;;;;;;;17.39;39.11;103049.25;4993519;28;20030;-75
2023/02/09 03:51:33;;;;;;;6.03;3.85;;;;;;;17.41;39.14;103052.66;4992019;28;20573;-73
2023/02/09 03:53:58;;;;;;;7.43;4.10;;;;;;;17.37;39.21;103041.41;4990523;28;20030;-73
2023/02/09 03:56:24;;;;;;;7.10;3.95;;;;;;;17.40;39.17;103046.56;4993987;28;20030;-74
2023/02/09 03:58:49;;;;;;;5.65;3.65;;;;;;;17.39;39.32;103039.56;4999481;28;20034;-76
2023/02/09 04:01:15;;;;;;;6.38;3.47;;;;;;;17.39;39.07;103033.44;4992799;28;20030;-75
2023/02/09 04:03:40;;;;;;;6.15;3.55;;;;;;;17.34;39.29;103025.72;4993284;28;20145;-75
2023/02/09 04:06:06;;;;;;;6.68;3.67;;;;;;;17.41;39.31;103032.44;4992536;28;20431;-74
2023/02/09 04:08:32;;;;;;;7.65;3.60;;;;;;;17.37;38.84;103022.97;4993488;28;20034;-75
2023/02/09 04:10:58;;;;;;;7.25;3.90;;;;;;;17.36;39.29;103023.03;4992454;28;20065;-76
2023/02/09 04:13:24;;;;;;;5.78;3.80;;;;;;;17.36;39.15;103023.88;4991336;28;20092;-76
2023/02/09 04:15:59;;;;;;;6.65;3.50;;;;;;;17.39;39.43;103018.47;4993242;28;20030;-78
2023/02/09 04:18:25;;;;;;;6.60;3.88;;;;;;;17.37;39.20;103014.19;5006691;28;20034;-76
2023/02/09 04:20:50;;;;;;;6.70;3.85;;;;;;;17.39;39.46;103007.06;4993378;28;20034;-78
2023/02/09 04:23:16;;;;;;;5.68;3.17;;;;;;;17.41;39.56;103007.84;4993100;28;20040;-76
2023/02/09 04:25:41;;;;;;;7.97;3.63;;;;;;;17.38;39.42;102994.81;4991975;28;20072;-76
2023/02/09 04:28:07;;;;;;;7.82;3.67;;;;;;;17.37;39.29;102988.69;4991592;28;20062;-74
2023/02/09 04:30:32;;;;;;;6.72;3.42;;;;;;;17.40;39.28;103007.00;4992288;28;20124;-75
2023/02/09 04:32:57;;;;;;;6.97;3.50;;;;;;;17.38;39.08;103002.72;5007731;28;20040;-78
2023/02/09 04:35:23;;;;;;;5.70;3.42;;;;;;;17.39;39.30;103010.56;4991638;28;20038;-76
2023/02/09 04:37:48;;;;;;;8.25;3.80;;;;;;;17.43;39.33;103020.97;4992681;28;20081;-77
2023/02/09 04:40:13;;;;;;;6.90;3.60;;;;;;;17.38;39.35;103014.09;4992521;28;20049;-75
2023/02/09 04:42:38;;;;;;;7.85;3.35;;;;;;;17.29;39.45;102990.81;4993146;28;20475;-75
2023/02/09 04:45:05;;;;;;;5.10;3.00;;;;;;;17.41;39.15;103003.44;4992460;28;20803;-76
2023/02/09 04:47:30;;;;;;;6.97;3.72;;;;;;;17.37;39.49;102993.97;4992991;28;20499;-74
2023/02/09 04:49:55;;;;;;;5.13;3.25;;;;;;;17.37;39.27;102982.53;4991847;28;20061;-76
2023/02/09 04:52:21;;;;;;;6.57;3.47;;;;;;;17.37;39.38;102977.28;5009166;28;20042;-75
2023/02/09 04:54:46;;;;;;;7.43;3.40;;;;;;;17.41;39.34;103002.59;4994828;28;20018;-76
2023/02/09 04:59:55;;;;;;;5.40;3.30;;;;;;;17.38;39.30;102998.28;4993233;28;20548;-75
2023/02/09 05:02:21;;;;;;;6.75;3.40;;;;;;;17.36;39.52;103005.41;4994015;28;20033;-76
2023/02/09 05:04:46;;;;;;;7.78;3.15;;;;;;;17.39;39.47;102996.53;4992635;28;20034;-74
2023/02/09 05:07:11;;;;;;;5.82;3.25;;;;;;;17.32;39.38;102990.69;4992865;28;20124;-74
2023/02/09 05:09:36;;;;;;;5.90;3.40;;;;;;;17.34;39.13;102999.38;4992425;28;20513;-74
2023/02/09 05:12:02;;;;;;;6.00;3.28;;;;;;;17.34;39.38;103001.13;4991414;28;20034;-76
2023/02/09 05:14:27;;;;;;;6.82;3.80;;;;;;;17.35;39.23;103008.97;4990745;28;20058;-75
2023/02/09 05:16:52;;;;;;;6.50;3.50;;;;;;;17.39;39.16;103007.06;4992838;28;20080;-75
2023/02/09 05:19:18;;;;;;;6.82;3.00;;;;;;;17.37;39.55;103003.63;4990425;28;20446;-74
2023/02/09 05:21:43;;;;;;;6.93;3.45;;;;;;;17.34;39.46;103007.28;4990879;28;20042;-73
2023/02/09 05:24:08;;;;;;;6.13;3.30;;;;;;;17.39;39.39;103012.34;4991144;28;20129;-73
2023/02/09 05:26:34;;;;;;;6.15;3.30;;;;;;;17.39;39.55;103022.91;4990272;28;20065;-74
2023/02/09 05:28:59;;;;;;;6.05;3.30;;;;;;;17.37;39.70;103008.91;4991137;28;20045;-75
2023/02/09 05:31:24;;;;;;;7.82;3.55;;;;;;;17.38;39.56;103023.81;4992600;28;20068;-75
2023/02/09 05:33:49;;;;;;;6.00;3.25;;;;;;;17.33;39.23;103012.63;4992220;28;20040;-77
2023/02/09 05:36:15;;;;;;;5.40;2.85;;;;;;;17.36;39.17;103023.03;4992008;28;20031;-79
2023/02/09 05:38:40;;;;;;;6.93;3.28;;;;;;;17.37;38.74;103030.88;5006559;28;20052;-76
2023/02/09 05:41:08;;;;;;;7.40;3.50;;;;;;;17.38;38.37;103024.66;4990408;28;20029;-79
2023/02/09 05:43:34;;;;;;;5.70;2.67;;;;;;;17.38;38.10;103032.56;4991491;28;20398;-78
2023/02/09 05:46:00;;;;;;;6.13;3.30;;;;;;;17.38;37.70;103032.56;4991668;28;20037;-77
2023/02/09 05:48:25;;;;;;;5.18;2.90;;;;;;;17.45;37.52;103035.81;4993138;28;20084;-76
2023/02/09 05:50:50;;;;;;;5.22;2.70;;;;;;;17.46;37.42;103036.66;4992700;28;20092;-75
2023/02/09 05:53:16;;;;;;;5.15;2.88;;;;;;;17.50;37.34;103032.94;4993076;28;20486;-75
2023/02/09 05:55:42;;;;;;;5.72;3.15;;;;;;;17.56;37.39;103041.47;4993131;28;20497;-75
2023/02/09 05:58:08;;;;;;;5.03;2.80;;;;;;;17.56;37.39;103032.69;4993061;28;20640;-73
2023/02/09 06:00:34;;;;;;;6.35;3.03;;;;;;;17.61;37.25;103037.75;4993399;28;20976;-76
2023/02/09 06:02:59;;;;;;;6.18;2.75;;;;;;;17.64;37.35;103037.63;4992895;28;20069;-75
2023/02/09 06:05:25;;;;;;;5.68;2.75;;;;;;;17.66;37.40;103038.41;4992919;28;20459;-75
2023/02/09 06:07:50;;;;;;;6.78;3.08;;;;;;;17.67;37.18;103021.66;4992524;28;20486;-75
2023/02/09 06:10:17;;;;;;;6.35;2.97;;;;;;;17.71;37.26;103031.16;4991136;28;20467;-75
2023/02/09 06:12:42;;;;;;;7.20;2.72;;;;;;;17.68;37.25;103012.84;4991439;28;20038;-73
2023/02/09 06:15:09;;;;;;;4.32;2.58;;;;;;;17.74;37.42;103010.75;4992294;28;20045;-76
2023/02/09 06:17:35;;;;;;;7.65;3.10;;;;;;;17.76;37.44;103005.41;4995294;28;20034;-75
2023/02/09 06:20:01;;;;;;;6.47;3.10;;;;;;;17.76;37.16;102992.22;4993389;28;20033;-74
2023/02/09 06:22:28;;;;;;;6.13;3.03;;;;;;;17.76;37.15;102993.06;4994356;28;20042;-76
2023/02/09 06:24:53;;;;;;;5.88;3.33;;;;;;;17.77;37.51;102999.22;4994286;28;20124;-75
2023/02/09 06:27:18;;;;;;;5.85;3.10;;;;;;;17.76;37.14;102995.72;4995541;28;20114;-77
2023/02/09 06:29:44;;;;;;;6.65;3.13;;;;;;;17.79;36.85;103001.81;4994923;28;20030;-75
2023/02/09 06:32:09;;;;;;;6.78;3.10;;;;;;;17.79;37.04;103010.56;4994791;28;20037;-74
2023/02/09 06:34:34;;;;;;;7.82;3.30;;;;;;;17.76;37.06;103016.81;4995028;28;20489;-76
2023/02/09 06:37:00;;;;;;;5.47;3.08;;;;;;;17.76;37.10;103018.59;4994630;28;20049;-78
2023/02/09 06:39:25;;;;;;;5.28;3.00;;;;;;;17.84;36.99;103031.44;4994057;28;20069;-75
2023/02/09 06:41:51;;;;;;;6.97;3.17;;;;;;;17.77;37.37;103036.16;4995455;28;20023;-74
2023/02/09 06:44:16;;;;;;;6.03;3.03;;;;;;;17.79;37.56;103036.94;4994806;28;20025;-75
2023/02/09 06:46:42;;;;;;;6.97;3.13;;;;;;;17.82;37.67;103044.72;4992436;28;20494;-80
2023/02/09 06:49:07;;;;;;;8.15;3.17;;;;;;;17.81;37.52;103057.97;5007036;28;20034;-74
2023/02/09 06:51:32;;;;;;;5.75;2.90;;;;;;;17.92;37.40;103051.28;4991046;28;20057;-72
2023/02/09 06:53:57;;;;;;;6.03;3.03;;;;;;;17.82;37.66;103049.13;4992170;28;20117;-73
2023/02/09 06:56:23;;;;;;;7.13;3.45;;;;;;;17.81;37.98;103052.69;4994202;28;20073;-74
2023/02/09 06:58:48;;;;;;;6.75;3.10;;;;;;;17.79;37.76;103052.75;4992271;28;20470;-73
2023/02/09 07:01:14;;;;;;;5.53;3.20;;;;;;;17.80;38.01;103054.47;4993503;28;20033;-71
2023/02/09 07:03:40;;;;;;;8.80;3.28;;;;;;;17.77;38.01;103058.09;4994470;28;20132;-71
2023/02/09 07:06:11;;;;;;;7.65;3.33;;;;;;;17.83;37.92;103082.47;4994334;28;20105;-70
2023/02/09 07:08:36;;;;;;;7.25;3.50;;;;;;;17.81;37.94;103082.56;4992588;28;20034;-71
2023/02/09 07:11:04;;;;;;;6.72;3.10;;;;;;;17.79;38.04;103078.28;4991500;28;20693;-72
2023/02/09 07:13:30;;;;;;;7.03;3.60;;;;;;;17.82;38.28;103084.28;4987592;28;20392;-75
2023/02/09 07:15:57;;;;;;;6.70;3.47;;;;;;;17.86;38.12;103087.63;4988163;28;20034;-72
2023/02/09 07:18:23;;;;;;;8.50;3.35;;;;;;;17.82;38.29;103086.06;4988347;28;20026;-73
2023/02/09 07:20:57;;;;;;;8.70;3.80;;;;;;;17.84;38.40;103100.88;4990665;28;20088;-73
2023/02/09 07:23:23;;;;;;;7.85;3.05;;;;;;;17.86;38.55;103096.38;4992341;28;20034;-73
2023/02/09 07:25:49;;;;;;;5.88;3.20;;;;;;;17.82;38.70;103086.91;4992466;28;20026;-72
2023/02/09 07:28:14;;;;;;;6.93;3.55;;;;;;;17.84;38.46;103089.47;4993065;28;20060;-73
2023/02/09 07:30:40;;;;;;;6.50;3.33;;;;;;;17.91;38.72;103101.50;4994304;28;20022;-72
2023/02/09 07:33:07;;;;;;;7.38;3.53;;;;;;;17.87;38.90;103081.44;4993694;28;20061;-73
2023/02/09 07:35:32;;;;;;;5.35;3.10;;;;;;;17.91;38.86;103083.03;4993328;28;20076;-74
2023/02/09 07:37:58;;;;;;;7.22;3.13;;;;;;;17.83;39.17;103093.91;4993754;28;20038;-71
2023/02/09 07:40:23;;;;;;;6.55;3.35;;;;;;;17.84;39.24;103087.69;4992740;28;20030;-71
2023/02/09 07:42:50;;;;;;;8.75;3.60;;;;;;;17.87;39.11;103095.47;4994091;28;21102;-75
2023/02/09 07:45:15;;;;;;;6.00;3.42;;;;;;;17.88;39.11;103086.66;4992662;28;20391;-79
2023/02/09 07:47:41;;;;;;;8.77;3.20;;;;;;;17.88;39.23;103080.53;4992586;28;20042;-80
2023/02/09 07:50:07;;;;;;;7.15;2.90;;;;;;;17.91;39.17;103083.03;4993947;28;20434;-78
2023/02/09 07:52:32;;;;;;;7.43;3.33;;;;;;;17.90;39.57;103087.44;4994262;28;20033;-78
2023/02/09 07:54:57;;;;;;;6.10;3.40;;;;;;;17.91;39.30;103098.84;4994311;28;20088;-77
2023/02/09 07:57:22;;;;;;;7.85;3.42;;;;;;;17.89;39.51;103088.38;4993627;28;20038;-77
2023/02/09 07:59:48;;;;;;;6.95;3.38;;;;;;;17.90;39.47;103079.53;4992424;28;20057;-75
2023/02/09 08:02:32;;;;;;;6.15;3.30;;;;;;;17.92;39.67;103084.75;4999912;28;20023;-75
2023/02/09 08:04:59;;;;;;;8.75;3.63;;;;;;;17.92;39.70;103076.84;4995010;28;20045;-78
2023/02/09 08:07:26;;;;;;;7.60;3.10;;;;;;;17.95;39.73;103089.88;4993585;28;20030;-77
2023/02/09 08:09:51;;;;;;;7.45;3.38;;;;;;;18.04;39.83;103088.59;4994156;28;20408;-76
2023/02/09 08:12:17;;;;;;;7.28;3.25;;;;;;;18.03;40.03;103085.13;4993388;28;20029;-79
2023/02/09 08:14:47;;;;;;;9.38;3.45;;;;;;;18.03;39.95;103085.13;4991829;28;20064;-79
2023/02/09 08:17:18;;;;;;;6.70;3.05;;;;;;;18.09;39.66;103103.31;4990098;28;20045;-76
2023/02/09 08:19:47;;;;;;;7.25;3.10;;;;;;;18.09;39.30;103086.63;4992771;28;20403;-76
2023/02/09 08:22:12;;;;;;;8.73;3.67;;;;;;;18.02;39.00;103095.72;4992894;28;20030;-70
2023/02/09 08:24:37;;;;;;;7.40;3.58;;;;;;;18.06;39.09;103102.59;4992736;28;20030;-78
2023/02/09 08:27:03;;;;;;;9.93;3.95;;;;;;;18.01;38.68;103092.25;4993374;28;20113;-78
2023/02/09 08:29:28;;;;;;;7.43;3.63;;;;;;;18.05;38.43;103101.72;4991916;28;20034;-76
2023/02/09 08:31:54;;;;;;;7.65;3.85;;;;;;;18.00;38.39;103092.31;4992100;28;20127;-75
2023/02/09 08:34:19;;;;;;;9.90;3.63;;;;;;;18.08;38.41;103090.19;4993897;28;20488;-74
2023/02/09 08:36:44;;;;;;;6.68;3.42;;;;;;;18.07;38.64;103094.63;4992207;28;20398;-73
2023/02/09 08:39:10;;;;;;;7.65;3.80;;;;;;;17.99;39.05;103078.28;4990531;28;20034;-75
2023/02/09 08:41:35;;;;;;;7.63;3.67;;;;;;;18.02;39.50;103064.91;4998728;28;20058;-76
2023/02/09 08:44:01;;;;;;;10.00;3.95;;;;;;;18.07;39.32;103073.50;4993183;28;20066;-77
2023/02/09 08:46:27;;;;;;;9.80;3.85;;;;;;;18.08;39.55;103075.19;4998756;28;20026;-76
2023/02/09 08:48:52;;;;;;;11.55;3.85;;;;;;;18.08;39.59;103071.72;4993059;28;20186;-75
2023/02/09 08:51:18;;;;;;;9.75;3.55;;;;;;;18.08;39.89;103064.63;4993068;28;20033;-80
2023/02/09 08:53:50;;;;;;;6.70;3.95;;;;;;;18.10;40.22;103067.22;4992620;28;20086;-78
2023/02/09 08:56:16;;;;;;;9.73;3.83;;;;;;;18.11;40.05;103058.38;4993820;28;20049;-76
2023/02/09 08:58:41;;;;;;;7.43;3.72;;;;;;;18.09;40.20;103065.53;4993391;28;20041;-77
2023/02/09 09:01:06;;;;;;;8.60;4.22;;;;;;;18.10;39.99;103077.75;4999685;28;20121;-75
2023/02/09 09:03:32;;;;;;;8.90;4.70;;;;;;;18.08;39.86;103071.72;4992616;28;20164;-79
2023/02/09 09:06:02;;;;;;;12.02;4.32;;;;;;;18.10;39.77;103068.09;4991344;28;20046;-76
2023/02/09 09:08:29;;;;;;;10.23;4.05;;;;;;;18.03;39.97;103048.16;4991740;28;20034;-81
2023/02/09 09:10:55;;;;;;;9.90;3.78;;;;;;;18.08;40.02;103061.16;4992762;28;20038;-77
2023/02/09 09:13:20;;;;;;;8.75;3.88;;;;;;;18.10;40.34;103067.22;4935932;28;20070;-78
2023/02/09 09:15:46;;;;;;;7.57;4.10;;;;;;;18.17;40.40;103081.00;4989986;28;20049;-77
2023/02/09 09:18:11;;;;;;;8.82;4.70;;;;;;;18.17;40.24;103076.56;4990972;28;20033;-76
2023/02/09 09:20:38;;;;;;;8.68;3.53;;;;;;;18.17;40.11;103081.00;4991563;28;20483;-77
2023/02/09 09:23:03;;;;;;;9.73;3.97;;;;;;;18.12;40.36;103076.78;4988845;28;20085;-77
2023/02/09 09:25:29;;;;;;;6.57;3.72;;;;;;;18.14;39.98;103079.34;4992332;28;20073;-74
2023/02/09 09:27:54;;;;;;;7.50;3.72;;;;;;;18.18;39.81;103091.47;4991614;28;20180;-75
2023/02/09 09:30:19;;;;;;;10.38;3.95;;;;;;;18.19;39.34;103087.06;4992770;28;20030;-74
2023/02/09 09:32:45;;;;;;;8.57;3.97;;;;;;;18.19;39.68;103092.34;4998383;28;20034;-81
2023/02/09 09:35:10;;;;;;;8.95;4.30;;;;;;;18.10;39.33;103078.66;4993719;28;20031;-79
2023/02/09 09:37:35;;;;;;;8.73;4.15;;;;;;;18.17;39.19;103107.41;4992095;28;20041;-78
2023/02/09 09:40:01;;;;;;;7.43;3.80;;;;;;;18.12;39.38;103102.31;4993159;28;20048;-78
2023/02/09 09:42:37;;;;;;;8.07;3.95;;;;;;;18.15;39.14;103104.81;4998279;28;20407;-80
2023/02/09 09:45:06;;;;;;;8.85;3.88;;;;;;;18.12;39.43;103103.16;4993039;28;20038;-77
2023/02/09 09:47:40;;;;;;;8.90;3.88;;;;;;;18.11;39.20;103079.50;4990913;28;20030;-79
2023/02/09 09:50:32;;;;;;;6.57;3.55;;;;;;;18.16;39.40;103087.19;4988997;28;20133;-80
2023/02/09 09:53:05;;;;;;;7.75;3.75;;;;;;;18.15;39.50;103091.63;5006580;28;20525;-79
2023/02/09 09:55:31;;;;;;;8.02;3.97;;;;;;;18.17;39.58;103094.19;4992211;28;20109;-74
2023/02/09 09:58:01;;;;;;;7.45;4.05;;;;;;;18.16;39.98;103098.59;4994466;28;20096;-70
2023/02/09 10:00:47;;;;;;;6.90;3.85;;;;;;;18.20;40.46;103113.38;4995451;28;20494;-71
2023/02/09 10:03:19;;;;;;;7.40;4.00;;;;;;;18.20;40.23;103092.28;4994371;28;20510;-70
2023/02/09 10:05:48;;;;;;;7.80;3.60;;;;;;;18.21;40.31;103093.13;4995340;28;20038;-70
2023/02/09 10:08:44;;;;;;;6.25;3.55;;;;;;;18.25;40.29;103102.63;4994147;28;20033;-73
2023/02/09 10:11:12;;;;;;;7.70;3.83;;;;;;;18.26;40.15;103105.19;4995958;28;20192;-69
2023/02/09 10:13:46;;;;;;;6.18;3.78;;;;;;;18.33;40.08;103116.31;4999153;28;20058;-70
2023/02/09 10:16:18;;;;;;;5.60;3.58;;;;;;;18.34;39.68;103111.88;5015102;28;20038;-69
2023/02/09 10:18:48;;;;;;;7.57;3.97;;;;;;;18.40;39.60;103119.50;5007954;28;20181;-71
2023/02/09 10:21:15;;;;;;;8.32;4.03;;;;;;;18.42;39.68;103123.81;4996589;28;20125;-70
2023/02/09 10:23:49;;;;;;;8.40;4.43;;;;;;;18.38;40.26;103116.94;4999077;28;20053;-70
2023/02/09 10:26:24;;;;;;;8.70;4.30;;;;;;;18.36;40.16;103112.66;5004148;28;20053;-66
2023/02/09 10:28:53;;;;;;;6.82;3.35;;;;;;;18.36;39.96;103100.34;5007711;28;20053;-69
2023/02/09 10:31:23;;;;;;;7.30;4.25;;;;;;;18.42;37.62;103118.53;5005756;28;20117;-69
2023/02/09 10:33:55;;;;;;;8.20;3.83;;;;;;;18.31;38.27;103111.09;5000781;28;20200;-68
2023/02/09 10:36:27;;;;;;;8.07;4.28;;;;;;;18.23;38.38;103102.69;4995072;28;20549;-69
2023/02/09 10:39:11;;;;;;;8.63;3.90;;;;;;;18.32;38.54;103114.59;4997217;28;20724;-70
2023/02/09 10:41:39;;;;;;;8.80;3.60;;;;;;;18.33;38.61;103116.31;4996362;28;20034;-70
2023/02/09 10:44:19;;;;;;;6.93;3.50;;;;;;;18.33;38.88;103120.75;5001074;28;20042;-68
2023/02/09 10:46:46;;;;;;;11.32;3.63;;;;;;;18.35;38.99;103117.09;5008776;28;20046;-68
2023/02/09 10:49:27;;;;;;;7.88;3.78;;;;;;;18.33;39.27;103126.88;4996505;28;20027;-70
2023/02/09 10:52:11;;;;;;;11.77;3.97;;;;;;;18.36;39.48;103132.00;4995155;28;20065;-70
2023/02/09 10:54:41;;;;;;;6.97;3.20;;;;;;;18.41;39.76;103151.13;4996396;28;20066;-69
2023/02/09 10:57:20;;;;;;;7.85;3.47;;;;;;;18.36;39.45;103139.03;4994752;28;20541;-71
2023/02/09 10:59:50;;;;;;;7.22;3.72;;;;;;;18.43;39.77;103128.13;5001128;28;20056;-67
2023/02/09 11:02:40;;;;;;;9.25;3.88;;;;;;;18.44;39.65;103129.03;4994843;28;20089;-71
2023/02/09 11:05:26;;;;;;;6.05;3.13;;;;;;;18.49;40.09;103134.94;5001328;28;20470;-68
2023/02/09 11:08:10;;;;;;;8.23;3.88;;;;;;;18.51;39.87;103141.00;4992485;28;20509;-70
2023/02/09 11:10:42;;;;;;;8.52;3.63;;;;;;;18.51;39.75;103130.44;4994689;28;20042;-70
2023/02/09 11:13:18;;;;;;;8.98;3.78;;;;;;;18.50;39.75;103123.44;4992818;28;20088;-68
2023/02/09 11:16:01;;;;;;;6.78;3.50;;;;;;;18.55;40.01;103117.94;4994990;28;20034;-70
2023/02/09 11:18:31;;;;;;;8.10;3.17;;;;;;;18.59;40.10;103123.00;5007280;28;20532;-70
2023/02/09 11:21:14;;;;;;;8.38;4.28;;;;;;;18.69;39.74;103118.13;4994062;28;20035;-68
2023/02/09 11:23:54;;;;;;;8.93;3.40;;;;;;;18.76;39.91;103110.78;4994289;28;20033;-72
2023/02/09 11:26:38;;;;;;;11.10;4.30;;;;;;;18.85;40.02;103124.44;4994322;28;20042;-68
2023/02/09 11:29:38;;;;;;;7.47;3.70;;;;;;;18.85;40.20;103135.00;4993975;28;20030;-72
2023/02/09 11:32:34;;;;;;;8.75;3.00;;;;;;;18.88;39.98;103143.69;4993574;28;20371;-69
2023/02/09 11:35:40;;;;;;;9.45;3.65;;;;;;;18.82;40.42;103134.28;4993457;28;20078;-70
2023/02/09 11:38:37;;;;;;;7.05;3.90;;;;;;;18.86;40.29;103135.84;4991656;28;20108;-69
2023/02/09 11:42:42;;;;;;;9.45;3.83;;;;;;;18.78;39.93;103122.97;4989142;28;20125;-68
2023/02/09 11:43:59;;;;;;;7.28;3.70;;;;;;;18.78;39.92;103130.06;4994057;28;20078;-68
2023/02/09 11:46:29;;;;;;;6.88;3.83;;;;;;;18.81;39.88;103127.25;4990820;28;20034;-68